createdAt,value
2017-09-08T00:01:07.940Z,21.40
2017-09-08T00:03:35.389Z,21.40
2017-09-08T00:06:02.813Z,21.30
2017-09-08T00:08:30.389Z,21.40
2017-09-08T00:10:57.852Z,21.40
2017-09-08T00:13:25.313Z,21.40
2017-09-08T00:15:52.760Z,21.50
2017-09-08T00:18:20.225Z,21.80
2017-09-08T00:20:48.532Z,21.90
2017-09-08T00:23:16.050Z,21.80
2017-09-08T00:25:43.476Z,22.00
2017-09-08T00:28:10.964Z,22.00
2017-09-08T00:30:38.385Z,22.10
2017-09-08T00:33:05.873Z,22.10
2017-09-08T00:35:33.333Z,22.20
2017-09-08T00:38:00.783Z,22.30
2017-09-08T00:40:28.223Z,22.20
2017-09-08T00:42:55.696Z,22.10
2017-09-08T00:45:23.129Z,22.20
2017-09-08T00:47:50.613Z,22.20
2017-09-08T00:50:18.045Z,22.40
2017-09-08T00:52:45.464Z,22.50
2017-09-08T00:55:12.980Z,23.00
2017-09-08T00:57:40.396Z,22.70
2017-09-08T01:00:07.892Z,23.00
2017-09-08T01:02:35.308Z,23.70
2017-09-08T01:05:02.744Z,23.80
2017-09-08T01:07:30.260Z,24.50
2017-09-08T01:09:57.712Z,24.40
2017-09-08T01:12:25.172Z,25.00
2017-09-08T01:14:52.607Z,25.30
2017-09-08T01:17:20.027Z,25.90
2017-09-08T01:19:47.459Z,26.20
2017-09-08T01:22:14.992Z,26.60
2017-09-08T01:24:42.417Z,26.80
2017-09-08T01:27:09.845Z,27.30
2017-09-08T01:29:37.276Z,27.30
2017-09-08T01:32:04.733Z,27.40
2017-09-08T01:34:32.160Z,27.90
2017-09-08T01:36:59.592Z,27.70
2017-09-08T01:39:28.108Z,28.30
2017-09-08T01:41:55.565Z,28.30
2017-09-08T01:44:22.992Z,29.10
2017-09-08T01:46:50.484Z,29.20
2017-09-08T01:49:17.917Z,29.00
2017-09-08T01:51:45.341Z,29.50
2017-09-08T01:54:12.768Z,29.50
2017-09-08T01:56:40.227Z,29.50
2017-09-08T01:59:07.660Z,29.70
2017-09-08T02:01:35.117Z,29.90
2017-09-08T02:04:02.540Z,29.90
2017-09-08T02:06:30.023Z,29.90
2017-09-08T02:08:57.453Z,29.90
2017-09-08T02:11:25.038Z,30.00
2017-09-08T02:13:52.461Z,30.10
2017-09-08T02:16:19.964Z,29.60
2017-09-08T02:18:47.717Z,30.40
2017-09-08T02:21:15.148Z,30.40
2017-09-08T02:23:42.581Z,30.90
2017-09-08T02:26:10.089Z,31.00
2017-09-08T02:28:37.724Z,31.10
2017-09-08T02:31:05.313Z,31.00
2017-09-08T02:33:32.740Z,31.00
2017-09-08T02:36:00.164Z,31.60
2017-09-08T02:38:28.365Z,31.70
2017-09-08T02:40:55.924Z,31.70
2017-09-08T02:43:23.520Z,32.10
2017-09-08T02:45:51.145Z,32.00
2017-09-08T02:48:18.580Z,32.50
2017-09-08T02:50:46.977Z,31.40
2017-09-08T02:53:14.560Z,31.50
2017-09-08T02:55:42.020Z,32.30
2017-09-08T02:58:09.463Z,33.10
2017-09-08T03:00:36.940Z,33.00
2017-09-08T03:03:04.381Z,33.00
2017-09-08T03:05:31.792Z,33.10
2017-09-08T03:07:59.310Z,33.60
2017-09-08T03:10:26.760Z,33.90
2017-09-08T03:12:54.221Z,33.80
2017-09-08T03:15:21.870Z,34.00
2017-09-08T03:17:49.441Z,34.00
2017-09-08T03:20:16.878Z,34.70
2017-09-08T03:22:44.298Z,33.80
2017-09-08T03:25:11.799Z,34.20
2017-09-08T03:27:39.224Z,33.30
2017-09-08T03:30:06.717Z,34.20
2017-09-08T03:32:34.140Z,34.20
2017-09-08T03:35:01.623Z,35.00
2017-09-08T03:37:29.088Z,35.20
2017-09-08T03:39:56.536Z,35.50
2017-09-08T03:42:23.960Z,35.50
2017-09-08T03:44:51.452Z,35.10
2017-09-08T03:47:18.887Z,35.60
2017-09-08T03:49:46.368Z,35.80
2017-09-08T03:52:13.824Z,35.10
2017-09-08T03:54:41.465Z,35.10
2017-09-08T03:57:09.768Z,35.00
2017-09-08T03:59:37.211Z,35.90
2017-09-08T04:02:04.775Z,35.70
2017-09-08T04:04:32.329Z,35.90
2017-09-08T04:06:59.764Z,36.00
2017-09-08T04:09:27.217Z,36.40
2017-09-08T04:11:55.005Z,36.50
2017-09-08T04:14:22.424Z,37.20
2017-09-08T04:16:49.852Z,37.50
2017-09-08T04:19:17.288Z,37.40
2017-09-08T04:21:44.780Z,36.70
2017-09-08T04:24:12.199Z,36.70
2017-09-08T04:26:39.662Z,36.90
2017-09-08T04:29:07.084Z,37.30
2017-09-08T04:31:34.663Z,37.60
2017-09-08T04:34:02.122Z,36.90
2017-09-08T04:36:29.570Z,37.80
2017-09-08T04:38:57.214Z,38.00
2017-09-08T04:41:24.699Z,38.20
2017-09-08T04:43:52.152Z,37.80
2017-09-08T04:46:19.597Z,38.00
2017-09-08T04:48:47.161Z,38.70
2017-09-08T04:51:14.628Z,38.30
2017-09-08T04:53:42.026Z,38.10
2017-09-08T04:56:09.464Z,38.10
2017-09-08T04:58:36.894Z,38.30
2017-09-08T05:01:04.474Z,38.30
2017-09-08T05:03:32.070Z,38.00
2017-09-08T05:05:59.505Z,38.30
2017-09-08T05:08:27.121Z,38.50
2017-09-08T05:10:54.577Z,38.30
2017-09-08T05:13:22.005Z,38.50
2017-09-08T05:15:49.486Z,38.50
2017-09-08T05:18:16.912Z,39.10
2017-09-08T05:20:44.406Z,39.10
2017-09-08T05:23:11.829Z,39.20
2017-09-08T05:25:39.248Z,39.10
2017-09-08T05:28:06.774Z,38.60
2017-09-08T05:30:34.201Z,38.00
2017-09-08T05:33:01.637Z,37.50
2017-09-08T05:35:29.141Z,38.30
2017-09-08T05:37:56.582Z,39.20
2017-09-08T05:40:24.007Z,39.00
2017-09-08T05:42:51.432Z,37.90
2017-09-08T05:45:18.965Z,38.90
2017-09-08T05:47:46.604Z,38.70
2017-09-08T05:50:14.082Z,38.70
2017-09-08T05:52:41.637Z,39.10
2017-09-08T05:55:09.098Z,39.30
2017-09-08T05:57:36.529Z,39.30
2017-09-08T06:00:04.010Z,39.40
2017-09-08T06:02:31.438Z,39.40
2017-09-08T06:04:58.860Z,38.40
2017-09-08T06:07:26.296Z,38.20
2017-09-08T06:09:53.802Z,39.30
2017-09-08T06:12:21.227Z,39.10
2017-09-08T06:14:48.656Z,39.20
2017-09-08T06:17:16.137Z,39.10
2017-09-08T06:19:43.572Z,39.30
2017-09-08T06:22:11.028Z,37.50
2017-09-08T06:24:38.576Z,38.70
2017-09-08T06:27:06.017Z,39.60
2017-09-08T06:29:33.432Z,38.90
2017-09-08T06:32:00.873Z,39.60
2017-09-08T06:34:28.402Z,39.30
2017-09-08T06:36:55.942Z,40.00
2017-09-08T06:39:23.611Z,39.00
2017-09-08T06:41:51.072Z,38.20
2017-09-08T06:44:18.537Z,38.00
2017-09-08T06:46:45.973Z,38.50
2017-09-08T06:49:13.432Z,37.40
2017-09-08T06:51:40.904Z,37.20
2017-09-08T06:54:08.352Z,36.70
2017-09-08T06:56:36.121Z,37.80
2017-09-08T06:59:03.572Z,36.60
2017-09-08T07:01:31.337Z,37.00
2017-09-08T07:03:58.795Z,36.90
2017-09-08T07:06:26.196Z,37.00
2017-09-08T07:08:53.614Z,36.40
2017-09-08T07:11:21.157Z,36.50
2017-09-08T07:13:48.587Z,35.60
2017-09-08T07:16:16.010Z,35.70
2017-09-08T07:18:43.432Z,35.10
2017-09-08T07:21:11.016Z,35.60
2017-09-08T07:23:38.622Z,35.00
2017-09-08T07:26:06.200Z,34.80
2017-09-08T07:28:33.653Z,34.70
2017-09-08T07:31:01.112Z,34.00
2017-09-08T07:33:28.577Z,33.50
2017-09-08T07:35:56.220Z,33.20
2017-09-08T07:38:23.637Z,32.70
2017-09-08T07:40:51.248Z,33.40
2017-09-08T07:43:18.681Z,32.40
2017-09-08T07:45:46.160Z,32.80
2017-09-08T07:48:13.589Z,31.90
2017-09-08T07:50:41.076Z,31.90
2017-09-08T07:53:08.525Z,31.50
2017-09-08T07:55:35.953Z,31.70
2017-09-08T07:58:03.392Z,31.70
2017-09-08T08:00:31.700Z,31.80
2017-09-08T08:02:59.152Z,31.70
2017-09-08T08:05:26.637Z,31.50
2017-09-08T08:07:54.197Z,31.50
2017-09-08T08:10:21.617Z,31.40
2017-09-08T08:12:49.100Z,31.20
2017-09-08T08:15:16.536Z,31.30
2017-09-08T08:17:43.969Z,31.00
2017-09-08T08:20:11.484Z,30.20
2017-09-08T08:22:38.909Z,30.50
2017-09-08T08:25:06.328Z,30.80
2017-09-08T08:27:33.762Z,30.80
2017-09-08T08:30:01.301Z,30.20
2017-09-08T08:32:28.940Z,30.00
2017-09-08T08:34:56.511Z,29.50
2017-09-08T08:37:23.944Z,29.70
2017-09-08T08:39:51.433Z,29.70
2017-09-08T08:42:19.199Z,29.40
2017-09-08T08:44:46.623Z,29.60
2017-09-08T08:47:14.104Z,29.50
2017-09-08T08:49:41.561Z,29.60
2017-09-08T08:52:08.989Z,29.20
2017-09-08T08:54:36.484Z,29.30
2017-09-08T08:57:03.911Z,29.70
2017-09-08T08:59:31.352Z,29.70
2017-09-08T09:01:58.845Z,29.50
2017-09-08T09:04:26.280Z,29.50
2017-09-08T09:06:53.705Z,29.40
2017-09-08T09:09:21.204Z,29.30
2017-09-08T09:11:48.629Z,29.40
2017-09-08T09:14:16.072Z,29.40
2017-09-08T09:16:43.581Z,29.50
2017-09-08T09:19:11.013Z,29.00
2017-09-08T09:21:38.489Z,29.10
2017-09-08T09:24:05.919Z,28.50
2017-09-08T09:26:33.344Z,28.80
2017-09-08T09:29:01.791Z,29.00
2017-09-08T09:31:29.208Z,29.00
2017-09-08T09:33:56.894Z,29.40
2017-09-08T09:36:24.328Z,29.00
2017-09-08T09:38:51.821Z,28.70
2017-09-08T09:41:19.267Z,28.90
2017-09-08T09:43:46.825Z,28.70
2017-09-08T09:46:14.254Z,28.40
2017-09-08T09:48:41.746Z,28.30
2017-09-08T09:51:09.177Z,28.30
2017-09-08T09:53:36.608Z,28.50
2017-09-08T09:56:04.048Z,28.40
2017-09-08T09:58:31.559Z,28.40
2017-09-08T10:00:58.990Z,28.50
2017-09-08T10:03:26.477Z,28.20
2017-09-08T10:05:54.013Z,28.30
2017-09-08T10:08:21.441Z,27.90
2017-09-08T10:10:48.871Z,28.10
2017-09-08T10:13:16.482Z,28.10
2017-09-08T10:15:44.069Z,28.10
2017-09-08T10:18:11.691Z,28.50
2017-09-08T10:20:40.224Z,28.30
2017-09-08T10:23:07.670Z,28.10
2017-09-08T10:25:35.117Z,27.80
2017-09-08T10:28:02.550Z,27.90
2017-09-08T10:30:29.982Z,27.50
2017-09-08T10:32:57.411Z,26.70
2017-09-08T10:35:24.861Z,27.10
2017-09-08T10:37:52.302Z,26.70
2017-09-08T10:40:19.757Z,26.00
2017-09-08T10:42:47.188Z,25.80
2017-09-08T10:45:14.773Z,24.70
2017-09-08T10:47:42.210Z,25.00
2017-09-08T10:50:09.641Z,24.40
2017-09-08T10:52:37.081Z,24.50
2017-09-08T10:55:04.508Z,23.60
2017-09-08T10:57:32.069Z,22.90
2017-09-08T10:59:59.680Z,23.10
2017-09-08T11:02:29.841Z,22.60
2017-09-08T11:04:57.488Z,22.70
2017-09-08T11:07:24.937Z,23.00
2017-09-08T11:09:52.383Z,23.20
2017-09-08T11:12:19.859Z,23.10
2017-09-08T11:14:47.281Z,22.80
2017-09-08T11:17:14.820Z,22.10
2017-09-08T11:19:42.417Z,22.10
2017-09-08T11:22:10.009Z,22.70
2017-09-08T11:24:37.631Z,22.20
2017-09-08T11:27:05.062Z,23.00
2017-09-08T11:29:32.669Z,23.50
2017-09-08T11:32:00.129Z,22.20
2017-09-08T11:34:33.282Z,21.30
2017-09-08T11:37:07.041Z,19.40
2017-09-08T11:39:34.557Z,19.30
2017-09-08T11:42:01.989Z,18.00
2017-09-08T11:44:29.408Z,18.30
2017-09-08T11:46:56.860Z,16.60
2017-09-08T11:49:24.349Z,18.00
2017-09-08T11:51:52.065Z,18.60
2017-09-08T11:54:19.510Z,17.70
2017-09-08T11:56:46.932Z,17.60
2017-09-08T11:59:14.383Z,17.20
2017-09-08T12:01:41.859Z,17.60
2017-09-08T12:04:09.282Z,17.70
2017-09-08T12:06:36.736Z,17.50
2017-09-08T12:09:04.169Z,16.90
2017-09-08T12:11:31.669Z,17.40
2017-09-08T12:13:59.121Z,16.70
2017-09-08T12:16:26.552Z,16.50
2017-09-08T12:18:53.980Z,17.10
2017-09-08T12:21:21.485Z,16.30
2017-09-08T12:23:49.030Z,16.40
2017-09-08T12:26:16.760Z,15.50
2017-09-08T12:28:44.189Z,15.90
2017-09-08T12:31:11.673Z,15.00
2017-09-08T12:33:39.101Z,15.40
2017-09-08T12:36:06.584Z,15.10
2017-09-08T12:38:34.044Z,14.80
2017-09-08T12:41:01.500Z,15.20
2017-09-08T12:43:28.933Z,14.80
2017-09-08T12:45:56.411Z,14.90
2017-09-08T12:48:23.873Z,14.80
2017-09-08T12:50:51.301Z,15.10
2017-09-08T12:53:18.780Z,15.20
2017-09-08T12:55:46.214Z,14.90
2017-09-08T12:58:13.692Z,14.80
2017-09-08T13:00:41.150Z,14.90
2017-09-08T13:03:08.581Z,14.50
2017-09-08T13:05:36.067Z,14.50
2017-09-08T13:08:03.718Z,14.60
2017-09-08T13:10:31.189Z,14.50
2017-09-08T13:12:58.623Z,14.30
2017-09-08T13:15:26.191Z,14.60
2017-09-08T13:17:53.648Z,14.60
2017-09-08T13:20:21.087Z,14.70
2017-09-08T13:22:48.829Z,14.20
2017-09-08T13:25:16.328Z,14.40
2017-09-08T13:27:43.779Z,14.00
2017-09-08T13:30:11.203Z,14.20
2017-09-08T13:32:38.697Z,14.50
2017-09-08T13:35:06.332Z,14.80
2017-09-08T13:37:33.832Z,15.00
2017-09-08T13:40:01.413Z,15.10
2017-09-08T13:42:28.844Z,15.10
2017-09-08T13:44:56.284Z,15.30
2017-09-08T13:47:23.912Z,13.70
2017-09-08T13:49:51.424Z,13.80
2017-09-08T13:52:18.867Z,14.20
2017-09-08T13:54:46.338Z,14.20
2017-09-08T13:57:13.764Z,13.80
2017-09-08T13:59:41.267Z,14.10
2017-09-08T14:02:09.461Z,13.30
2017-09-08T14:04:37.156Z,13.30
2017-09-08T14:07:04.597Z,13.20
2017-09-08T14:09:32.029Z,13.20
2017-09-08T14:11:59.449Z,13.60
2017-09-08T14:14:26.936Z,13.70
2017-09-08T14:16:54.355Z,13.70
2017-09-08T14:19:22.429Z,13.60
2017-09-08T14:21:49.878Z,13.70
2017-09-08T14:24:17.321Z,13.80
2017-09-08T14:26:44.777Z,14.00
2017-09-08T14:29:12.353Z,14.00
2017-09-08T14:31:40.097Z,13.80
2017-09-08T14:34:07.529Z,14.30
2017-09-08T14:36:34.979Z,13.80
2017-09-08T14:39:02.476Z,13.50
2017-09-08T14:41:29.921Z,13.60
2017-09-08T14:43:57.689Z,13.40
2017-09-08T14:46:25.193Z,14.10
2017-09-08T14:48:53.525Z,13.70
2017-09-08T14:51:21.157Z,13.60
2017-09-08T14:53:48.676Z,14.00
2017-09-08T14:56:16.113Z,14.40
2017-09-08T14:58:43.549Z,14.40
2017-09-08T15:01:11.113Z,14.40
2017-09-08T15:03:38.768Z,14.20
2017-09-08T15:06:06.341Z,14.20
2017-09-08T15:08:33.805Z,13.70
2017-09-08T15:11:01.237Z,13.80
2017-09-08T15:13:28.699Z,14.30
2017-09-08T15:15:56.132Z,13.80
2017-09-08T15:18:23.553Z,13.80
2017-09-08T15:20:50.990Z,13.70
2017-09-08T15:23:18.424Z,13.70
2017-09-08T15:25:45.856Z,14.70
2017-09-08T15:28:13.284Z,13.70
2017-09-08T15:30:41.484Z,13.80
2017-09-08T15:33:08.950Z,13.80
2017-09-08T15:35:36.390Z,14.30
2017-09-08T15:38:03.820Z,13.50
2017-09-08T15:40:31.239Z,14.00
2017-09-08T15:42:58.743Z,14.10
2017-09-08T15:45:26.164Z,13.70
2017-09-08T15:47:53.614Z,13.80
2017-09-08T15:50:21.196Z,14.00
2017-09-08T15:52:50.157Z,14.00
2017-09-08T15:55:17.584Z,14.00
2017-09-08T15:57:45.014Z,14.10
2017-09-08T16:00:12.464Z,13.70
2017-09-08T16:02:39.891Z,13.50
2017-09-08T16:05:07.324Z,13.80
2017-09-08T16:07:34.761Z,13.70
2017-09-08T16:10:02.266Z,14.10
2017-09-08T16:12:29.805Z,14.50
2017-09-08T16:14:57.232Z,14.10
2017-09-08T16:17:24.665Z,14.20
2017-09-08T16:19:52.178Z,14.20
2017-09-08T16:22:19.619Z,14.40
2017-09-08T16:24:47.036Z,14.50
2017-09-08T16:27:14.469Z,14.50
2017-09-08T16:29:41.898Z,14.30
2017-09-08T16:32:09.333Z,14.50
2017-09-08T16:34:36.757Z,14.60
2017-09-08T16:37:05.174Z,14.90
2017-09-08T16:39:32.738Z,14.90
2017-09-08T16:42:00.201Z,15.30
2017-09-08T16:44:27.838Z,15.20
2017-09-08T16:46:55.274Z,15.20
2017-09-08T16:49:22.788Z,15.20
2017-09-08T16:51:50.334Z,15.30
2017-09-08T16:54:18.046Z,15.30
2017-09-08T16:56:45.472Z,15.20
2017-09-08T16:59:12.908Z,15.20
2017-09-08T17:01:40.328Z,15.20
2017-09-08T17:04:07.756Z,15.20
2017-09-08T17:06:35.181Z,15.60
2017-09-08T17:09:02.758Z,15.70
2017-09-08T17:11:30.278Z,15.70
2017-09-08T17:13:57.939Z,15.90
2017-09-08T17:16:25.414Z,16.00
2017-09-08T17:18:52.859Z,16.10
2017-09-08T17:21:20.332Z,16.20
2017-09-08T17:23:47.789Z,16.30
2017-09-08T17:26:15.226Z,16.30
2017-09-08T17:28:42.735Z,16.50
2017-09-08T17:31:10.166Z,16.50
2017-09-08T17:33:37.603Z,16.60
2017-09-08T17:36:05.132Z,16.70
2017-09-08T17:38:32.608Z,16.70
2017-09-08T17:41:00.064Z,16.70
2017-09-08T17:43:27.490Z,16.60
2017-09-08T17:45:54.921Z,16.60
2017-09-08T17:48:22.352Z,16.70
2017-09-08T17:50:49.907Z,16.70
2017-09-08T17:53:17.324Z,16.70
2017-09-08T17:55:44.804Z,16.90
2017-09-08T17:58:12.297Z,16.80
2017-09-08T18:00:39.920Z,16.80
2017-09-08T18:03:07.482Z,16.80
2017-09-08T18:05:34.926Z,16.80
2017-09-08T18:08:02.388Z,17.00
2017-09-08T18:10:29.828Z,16.90
2017-09-08T18:12:57.252Z,17.20
2017-09-08T18:15:24.828Z,17.00
2017-09-08T18:17:52.453Z,17.00
2017-09-08T18:20:19.980Z,17.00
2017-09-08T18:22:47.408Z,17.20
2017-09-08T18:25:14.841Z,17.60
2017-09-08T18:27:42.274Z,17.90
2017-09-08T18:30:09.821Z,18.10
2017-09-08T18:32:37.238Z,18.30
2017-09-08T18:35:04.657Z,18.60
2017-09-08T18:37:32.179Z,18.60
2017-09-08T18:39:59.609Z,18.60
2017-09-08T18:42:27.114Z,18.90
2017-09-08T18:44:55.342Z,19.20
2017-09-08T18:47:22.811Z,19.30
2017-09-08T18:49:50.393Z,19.20
2017-09-08T18:52:17.832Z,19.20
2017-09-08T18:54:45.292Z,19.30
2017-09-08T18:57:12.749Z,19.40
2017-09-08T18:59:40.202Z,19.10
2017-09-08T19:02:07.659Z,19.20
2017-09-08T19:04:35.057Z,19.00
2017-09-08T19:07:02.580Z,19.30
2017-09-08T19:09:29.998Z,19.20
2017-09-08T19:11:57.435Z,19.30
2017-09-08T19:14:24.872Z,19.10
2017-09-08T19:16:52.303Z,19.20
2017-09-08T19:19:19.759Z,19.20
2017-09-08T19:21:47.309Z,19.10
2017-09-08T19:24:14.728Z,19.30
2017-09-08T19:26:42.163Z,19.40
2017-09-08T19:29:09.591Z,19.60
2017-09-08T19:31:37.045Z,19.60
2017-09-08T19:34:04.535Z,19.60
2017-09-08T19:36:31.952Z,19.90
2017-09-08T19:38:59.386Z,19.70
2017-09-08T19:41:26.859Z,19.70
2017-09-08T19:43:54.298Z,19.90
2017-09-08T19:46:21.716Z,19.80
2017-09-08T19:48:49.213Z,19.80
2017-09-08T19:51:16.669Z,19.80
2017-09-08T19:53:44.181Z,19.80
2017-09-08T19:56:11.718Z,20.00
2017-09-08T19:58:39.332Z,20.30
2017-09-08T20:01:06.784Z,20.30
2017-09-08T20:03:34.280Z,20.40
2017-09-08T20:06:01.717Z,20.30
2017-09-08T20:08:29.156Z,20.50
2017-09-08T20:10:56.656Z,20.50
2017-09-08T20:13:24.091Z,20.40
2017-09-08T20:15:51.616Z,20.80
2017-09-08T20:18:19.037Z,21.00
2017-09-08T20:20:46.594Z,21.00
2017-09-08T20:23:14.955Z,21.40
2017-09-08T20:25:42.408Z,21.30
2017-09-08T20:28:09.882Z,21.40
2017-09-08T20:30:37.611Z,21.70
2017-09-08T20:33:05.038Z,21.70
2017-09-08T20:35:32.468Z,21.60
2017-09-08T20:37:59.892Z,21.70
2017-09-08T20:40:27.445Z,22.10
2017-09-08T20:42:54.908Z,22.00
2017-09-08T20:45:22.380Z,22.40
2017-09-08T20:47:50.600Z,22.70
2017-09-08T20:50:18.085Z,22.70
2017-09-08T20:52:45.649Z,22.50
2017-09-08T20:55:13.076Z,22.70
2017-09-08T20:57:40.574Z,23.90
2017-09-08T21:00:08.320Z,24.10
2017-09-08T21:02:35.748Z,23.80
2017-09-08T21:05:03.250Z,23.80
2017-09-08T21:07:30.669Z,24.00
2017-09-08T21:09:58.097Z,23.90
2017-09-08T21:12:25.529Z,23.80
2017-09-08T21:14:52.980Z,24.10
2017-09-08T21:17:20.408Z,23.80
2017-09-08T21:19:47.837Z,24.90
2017-09-08T21:22:15.257Z,24.50
2017-09-08T21:24:42.699Z,24.80
2017-09-08T21:27:10.108Z,24.50
2017-09-08T21:29:37.672Z,24.70
2017-09-08T21:32:05.132Z,24.40
2017-09-08T21:34:32.681Z,24.70
2017-09-08T21:37:00.114Z,24.60
2017-09-08T21:39:27.535Z,24.90
2017-09-08T21:41:55.077Z,24.80
2017-09-08T21:44:22.502Z,24.90
2017-09-08T21:46:49.986Z,24.00
2017-09-08T21:49:17.451Z,24.30
2017-09-08T21:51:44.874Z,24.10
2017-09-08T21:54:12.357Z,23.70
2017-09-08T21:56:39.786Z,23.80
2017-09-08T21:59:07.273Z,23.70
2017-09-08T22:01:34.705Z,24.30
2017-09-08T22:04:02.181Z,23.50
2017-09-08T22:06:29.618Z,23.50
2017-09-08T22:08:57.040Z,23.50
2017-09-08T22:11:24.482Z,23.40
2017-09-08T22:13:52.002Z,23.70
2017-09-08T22:16:19.414Z,23.70
2017-09-08T22:18:46.851Z,23.70
2017-09-08T22:21:14.296Z,23.60
2017-09-08T22:23:41.716Z,23.70
2017-09-08T22:26:09.288Z,23.60
2017-09-08T22:28:36.748Z,23.50
2017-09-08T22:31:04.298Z,23.50
2017-09-08T22:33:31.836Z,23.60
2017-09-08T22:35:59.304Z,23.70
2017-09-08T22:38:26.876Z,23.80
2017-09-08T22:40:54.297Z,24.00
2017-09-08T22:43:21.792Z,24.20
2017-09-08T22:45:49.212Z,24.40
2017-09-08T22:48:16.649Z,24.20
2017-09-08T22:50:44.066Z,24.30
2017-09-08T22:53:11.612Z,24.00
2017-09-08T22:55:39.036Z,24.30
2017-09-08T22:58:06.469Z,24.10
2017-09-08T23:00:33.978Z,24.30
2017-09-08T23:03:01.417Z,24.40
2017-09-08T23:05:28.832Z,24.40
2017-09-08T23:07:56.270Z,24.70
2017-09-08T23:10:23.744Z,24.20
2017-09-08T23:12:51.268Z,24.30
2017-09-08T23:15:18.729Z,24.70
2017-09-08T23:17:46.179Z,24.70
2017-09-08T23:20:13.588Z,24.60
2017-09-08T23:22:41.029Z,24.60
2017-09-08T23:25:08.448Z,24.60
2017-09-08T23:27:36.000Z,24.60
2017-09-08T23:30:03.456Z,24.60
2017-09-08T23:32:30.876Z,24.70
2017-09-08T23:34:58.309Z,24.60
2017-09-08T23:37:25.829Z,24.70
2017-09-08T23:39:53.293Z,24.70
2017-09-08T23:42:20.716Z,24.90
2017-09-08T23:44:48.144Z,24.70
2017-09-08T23:47:15.565Z,24.70
2017-09-08T23:49:46.180Z,24.90
2017-09-08T23:52:13.645Z,24.90
2017-09-08T23:54:41.312Z,24.80
2017-09-08T23:57:09.776Z,25.00
2017-09-08T23:59:37.211Z,24.90
